createdAt,value
2022-12-29T00:00:52.129Z,9.60
2022-12-29T00:01:52.011Z,9.62
2022-12-29T00:02:52.155Z,9.62
2022-12-29T00:03:52.027Z,9.62
2022-12-29T00:04:51.994Z,9.62
2022-12-29T00:05:51.935Z,9.62
2022-12-29T00:06:51.980Z,9.62
2022-12-29T00:07:51.934Z,9.62
2022-12-29T00:08:51.941Z,9.62
2022-12-29T00:09:51.888Z,9.62
2022-12-29T00:10:51.915Z,9.62
2022-12-29T00:11:51.897Z,9.59
2022-12-29T00:12:51.879Z,9.59
2022-12-29T00:13:51.859Z,9.60
2022-12-29T00:14:51.860Z,9.59
2022-12-29T00:15:51.865Z,9.60
2022-12-29T00:16:51.852Z,9.58
2022-12-29T00:17:51.806Z,9.60
2022-12-29T00:18:51.807Z,9.59
2022-12-29T00:19:51.877Z,9.60
2022-12-29T00:20:51.788Z,9.59
2022-12-29T00:21:51.767Z,9.60
2022-12-29T00:22:51.768Z,9.60
2022-12-29T00:23:51.697Z,9.63
2022-12-29T00:24:51.702Z,9.63
2022-12-29T00:25:51.673Z,9.63
2022-12-29T00:26:51.738Z,9.65
2022-12-29T00:27:51.653Z,9.65
2022-12-29T00:28:51.649Z,9.65
2022-12-29T00:29:51.648Z,9.67
2022-12-29T00:30:51.675Z,9.65
2022-12-29T00:31:51.706Z,9.65
2022-12-29T00:32:51.604Z,9.65
2022-12-29T00:33:51.598Z,9.65
2022-12-29T00:34:51.562Z,9.62
2022-12-29T00:35:51.539Z,9.63
2022-12-29T00:36:51.560Z,9.63
2022-12-29T00:37:51.563Z,9.63
2022-12-29T00:38:51.509Z,9.63
2022-12-29T00:39:51.486Z,9.63
2022-12-29T00:40:51.478Z,9.63
2022-12-29T00:41:51.458Z,9.65
2022-12-29T00:42:51.458Z,9.65
2022-12-29T00:43:51.484Z,9.65
2022-12-29T00:44:51.428Z,9.65
2022-12-29T00:45:51.434Z,9.63
2022-12-29T00:46:51.431Z,9.65
2022-12-29T00:47:51.409Z,9.67
2022-12-29T00:48:51.408Z,9.67
2022-12-29T00:49:51.355Z,9.67
2022-12-29T00:50:51.383Z,9.68
2022-12-29T00:51:51.352Z,9.70
2022-12-29T00:52:51.326Z,9.70
2022-12-29T00:53:51.324Z,9.71
2022-12-29T00:54:51.351Z,9.71
2022-12-29T00:55:51.300Z,9.71
2022-12-29T00:56:51.276Z,9.73
2022-12-29T00:57:51.270Z,9.74
2022-12-29T00:58:51.273Z,9.75
2022-12-29T00:59:51.279Z,9.77
2022-12-29T01:00:51.267Z,9.77
2022-12-29T01:01:51.319Z,9.80
2022-12-29T01:02:51.302Z,9.78
2022-12-29T01:03:51.192Z,9.78
2022-12-29T01:04:51.198Z,9.80
2022-12-29T01:05:51.174Z,9.83
2022-12-29T01:06:51.179Z,9.83
2022-12-29T01:07:51.116Z,9.88
2022-12-29T01:08:51.152Z,9.92
2022-12-29T01:09:51.151Z,9.95
2022-12-29T01:10:51.094Z,9.98
2022-12-29T01:11:51.067Z,9.98
2022-12-29T01:12:51.073Z,10.01
2022-12-29T01:13:51.068Z,10.02
2022-12-29T01:14:51.043Z,10.02
2022-12-29T01:15:51.069Z,10.06
2022-12-29T01:16:51.038Z,10.06
2022-12-29T01:17:51.010Z,10.06
2022-12-29T01:18:51.031Z,10.10
2022-12-29T01:19:50.963Z,10.09
2022-12-29T01:20:50.990Z,10.10
2022-12-29T01:21:50.933Z,10.11
2022-12-29T01:22:50.976Z,10.10
2022-12-29T01:23:50.928Z,10.11
2022-12-29T01:24:50.953Z,10.11
2022-12-29T01:25:50.908Z,10.16
2022-12-29T01:26:50.880Z,10.18
2022-12-29T01:27:50.880Z,10.24
2022-12-29T01:28:50.860Z,10.25
2022-12-29T01:29:50.832Z,10.26
2022-12-29T01:30:50.830Z,10.26
2022-12-29T01:31:51.208Z,10.25
2022-12-29T01:32:50.803Z,10.26
2022-12-29T01:33:50.806Z,10.26
2022-12-29T01:34:50.839Z,10.28
2022-12-29T01:35:50.749Z,10.28
2022-12-29T01:36:50.775Z,10.28
2022-12-29T01:37:50.720Z,10.28
2022-12-29T01:38:50.717Z,10.29
2022-12-29T01:39:50.775Z,10.29
2022-12-29T01:40:50.745Z,10.31
2022-12-29T01:41:50.687Z,10.35
2022-12-29T01:42:50.691Z,10.34
2022-12-29T01:43:50.676Z,10.36
2022-12-29T01:44:50.721Z,10.38
2022-12-29T01:45:50.685Z,10.36
2022-12-29T01:46:50.633Z,10.38
2022-12-29T01:47:50.614Z,10.36
2022-12-29T01:48:50.589Z,10.38
2022-12-29T01:49:50.585Z,10.38
2022-12-29T01:50:50.588Z,10.42
2022-12-29T01:51:50.572Z,10.47
2022-12-29T01:52:50.562Z,10.54
2022-12-29T01:53:50.546Z,10.55
2022-12-29T01:54:50.508Z,10.58
2022-12-29T01:55:50.536Z,10.60
2022-12-29T01:56:50.487Z,10.57
2022-12-29T01:57:50.493Z,10.60
2022-12-29T01:58:50.492Z,10.60
2022-12-29T01:59:50.434Z,10.57
2022-12-29T02:00:50.532Z,10.58
2022-12-29T02:01:50.643Z,10.60
2022-12-29T02:02:50.482Z,10.65
2022-12-29T02:03:50.411Z,10.68
2022-12-29T02:04:50.412Z,10.70
2022-12-29T02:05:50.370Z,10.78
2022-12-29T02:06:50.357Z,10.83
2022-12-29T02:07:50.346Z,10.88
2022-12-29T02:08:50.393Z,10.91
2022-12-29T02:09:50.337Z,10.91
2022-12-29T02:10:50.342Z,10.90
2022-12-29T02:11:50.302Z,10.91
2022-12-29T02:12:50.290Z,10.91
2022-12-29T02:13:50.271Z,10.94
2022-12-29T02:14:50.250Z,10.95
2022-12-29T02:15:50.255Z,10.98
2022-12-29T02:16:50.279Z,11.02
2022-12-29T02:17:50.231Z,11.03
2022-12-29T02:18:50.244Z,11.05
2022-12-29T02:19:50.230Z,11.06
2022-12-29T02:20:50.183Z,11.06
2022-12-29T02:21:50.142Z,11.03
2022-12-29T02:22:50.170Z,10.99
2022-12-29T02:23:50.159Z,10.95
2022-12-29T02:24:50.135Z,10.94
2022-12-29T02:25:50.140Z,10.93
2022-12-29T02:26:50.082Z,10.91
2022-12-29T02:27:50.079Z,10.94
2022-12-29T02:28:50.071Z,10.94
2022-12-29T02:29:50.048Z,10.93
2022-12-29T02:30:50.051Z,10.93
2022-12-29T02:31:50.123Z,10.91
2022-12-29T02:32:50.018Z,10.94
2022-12-29T02:33:49.991Z,10.99
2022-12-29T02:34:50.019Z,11.02
2022-12-29T02:35:49.970Z,11.02
2022-12-29T02:36:49.997Z,11.02
2022-12-29T02:37:49.981Z,11.05
2022-12-29T02:38:49.958Z,11.08
2022-12-29T02:39:49.909Z,11.11
2022-12-29T02:40:49.928Z,11.12
2022-12-29T02:41:49.905Z,11.13
2022-12-29T02:42:49.879Z,11.13
2022-12-29T02:43:49.883Z,11.13
2022-12-29T02:44:49.850Z,11.16
2022-12-29T02:45:49.934Z,11.17
2022-12-29T02:46:49.863Z,11.17
2022-12-29T02:47:49.805Z,11.13
2022-12-29T02:48:49.834Z,11.11
2022-12-29T02:49:49.790Z,11.09
2022-12-29T02:50:49.797Z,11.06
2022-12-29T02:51:49.774Z,11.05
2022-12-29T02:52:49.757Z,11.06
2022-12-29T02:53:49.735Z,11.09
2022-12-29T02:54:49.768Z,11.09
2022-12-29T02:55:49.707Z,11.06
2022-12-29T02:56:49.744Z,11.09
2022-12-29T02:57:49.701Z,11.08
2022-12-29T02:58:49.721Z,11.09
2022-12-29T02:59:49.675Z,11.11
2022-12-29T03:00:49.713Z,11.11
2022-12-29T03:01:49.753Z,11.11
2022-12-29T03:02:49.790Z,11.11
2022-12-29T03:03:49.612Z,11.09
2022-12-29T03:04:49.606Z,11.11
2022-12-29T03:05:49.614Z,11.08
2022-12-29T03:06:49.602Z,11.08
2022-12-29T03:07:49.545Z,11.03
2022-12-29T03:08:49.595Z,11.02
2022-12-29T03:09:49.552Z,10.99
2022-12-29T03:10:49.550Z,10.98
2022-12-29T03:11:49.504Z,10.94
2022-12-29T03:12:49.534Z,10.91
2022-12-29T03:13:49.462Z,10.90
2022-12-29T03:14:49.514Z,10.87
2022-12-29T03:15:49.469Z,10.87
2022-12-29T03:16:49.488Z,10.84
2022-12-29T03:17:49.424Z,10.83
2022-12-29T03:18:49.449Z,10.81
2022-12-29T03:19:49.412Z,10.80
2022-12-29T03:20:49.409Z,10.78
2022-12-29T03:21:49.379Z,10.78
2022-12-29T03:22:49.388Z,10.80
2022-12-29T03:23:49.387Z,10.78
2022-12-29T03:24:49.349Z,10.78
2022-12-29T03:25:49.324Z,10.75
2022-12-29T03:26:49.300Z,10.75
2022-12-29T03:27:49.360Z,10.75
2022-12-29T03:28:49.291Z,10.73
2022-12-29T03:29:49.298Z,10.70
2022-12-29T03:30:49.313Z,10.72
2022-12-29T03:31:49.243Z,10.69
2022-12-29T03:32:49.245Z,10.70
2022-12-29T03:33:49.289Z,10.73
2022-12-29T03:34:49.228Z,10.73
2022-12-29T03:35:49.251Z,10.73
2022-12-29T03:36:49.187Z,10.73
2022-12-29T03:37:49.178Z,10.75
2022-12-29T03:38:49.154Z,10.78
2022-12-29T03:39:49.142Z,10.76
2022-12-29T03:40:49.136Z,10.76
2022-12-29T03:41:49.171Z,10.78
2022-12-29T03:42:49.110Z,10.80
2022-12-29T03:43:49.112Z,10.78
2022-12-29T03:44:49.086Z,10.80
2022-12-29T03:45:49.129Z,10.81
2022-12-29T03:46:49.051Z,10.80
2022-12-29T03:47:49.074Z,10.80
2022-12-29T03:48:49.034Z,10.80
2022-12-29T03:49:49.034Z,10.78
2022-12-29T03:50:49.004Z,10.76
2022-12-29T03:51:51.736Z,10.76
2022-12-29T03:52:48.986Z,10.78
2022-12-29T03:53:48.965Z,10.78
2022-12-29T03:54:48.939Z,10.80
2022-12-29T03:55:48.937Z,10.78
2022-12-29T03:56:48.927Z,10.78
2022-12-29T03:57:48.936Z,10.78
2022-12-29T03:58:48.875Z,10.80
2022-12-29T03:59:48.885Z,10.81
2022-12-29T04:00:48.895Z,10.83
2022-12-29T04:01:49.060Z,10.87
2022-12-29T04:02:49.000Z,10.90
2022-12-29T04:03:48.906Z,10.91
2022-12-29T04:04:48.807Z,10.93
2022-12-29T04:05:48.831Z,10.94
2022-12-29T04:06:48.792Z,10.95
2022-12-29T04:07:48.777Z,11.01
2022-12-29T04:08:48.788Z,11.02
2022-12-29T04:09:48.772Z,11.05
2022-12-29T04:10:48.721Z,11.08
2022-12-29T04:11:48.737Z,11.08
2022-12-29T04:12:48.695Z,11.09
2022-12-29T04:13:48.699Z,11.08
2022-12-29T04:14:48.673Z,11.06
2022-12-29T04:15:48.753Z,11.05
2022-12-29T04:16:48.680Z,11.02
2022-12-29T04:17:48.660Z,11.02
2022-12-29T04:18:48.649Z,11.02
2022-12-29T04:19:48.644Z,11.02
2022-12-29T04:20:48.635Z,11.03
2022-12-29T04:21:48.679Z,11.03
2022-12-29T04:22:48.601Z,11.02
2022-12-29T04:23:48.564Z,11.03
2022-12-29T04:24:48.575Z,11.02
2022-12-29T04:25:48.530Z,10.99
2022-12-29T04:26:48.559Z,10.95
2022-12-29T04:27:48.540Z,10.93
2022-12-29T04:28:48.490Z,10.94
2022-12-29T04:29:48.494Z,10.93
2022-12-29T04:30:48.566Z,10.91
2022-12-29T04:31:48.525Z,10.91
2022-12-29T04:32:48.464Z,10.91
2022-12-29T04:33:48.467Z,10.94
2022-12-29T04:34:48.442Z,10.94
2022-12-29T04:35:48.413Z,10.98
2022-12-29T04:36:48.411Z,10.99
2022-12-29T04:37:48.394Z,11.01
2022-12-29T04:38:48.387Z,11.02
2022-12-29T04:39:48.378Z,11.01
2022-12-29T04:40:48.333Z,11.03
2022-12-29T04:41:48.369Z,11.02
2022-12-29T04:42:48.322Z,11.05
2022-12-29T04:43:48.328Z,11.06
2022-12-29T04:44:48.280Z,11.08
2022-12-29T04:45:48.280Z,11.09
2022-12-29T04:46:48.325Z,11.12
2022-12-29T04:47:48.382Z,11.12
2022-12-29T04:48:48.254Z,11.13
2022-12-29T04:49:48.229Z,11.19
2022-12-29T04:50:48.238Z,11.17
2022-12-29T04:51:48.209Z,11.17
2022-12-29T04:52:48.196Z,11.16
2022-12-29T04:53:48.181Z,11.16
2022-12-29T04:54:48.148Z,11.13
2022-12-29T04:55:48.149Z,11.12
2022-12-29T04:56:48.138Z,11.13
2022-12-29T04:57:48.147Z,11.17
2022-12-29T04:58:48.089Z,11.19
2022-12-29T04:59:48.109Z,11.20
2022-12-29T05:00:48.069Z,11.17
2022-12-29T05:01:48.179Z,11.16
2022-12-29T05:02:48.289Z,11.13
2022-12-29T05:03:48.113Z,11.16
2022-12-29T05:04:48.046Z,11.16
2022-12-29T05:05:48.071Z,11.19
2022-12-29T05:06:48.047Z,11.20
2022-12-29T05:07:48.057Z,11.20
2022-12-29T05:08:47.998Z,11.21
2022-12-29T05:09:48.005Z,11.19
2022-12-29T05:10:47.964Z,11.19
2022-12-29T05:11:47.962Z,11.17
2022-12-29T05:12:47.944Z,11.17
2022-12-29T05:13:47.974Z,11.17
2022-12-29T05:14:47.917Z,11.17
2022-12-29T05:15:47.961Z,11.19
2022-12-29T05:16:47.867Z,11.20
2022-12-29T05:18:02.636Z,11.20
2022-12-29T05:18:47.893Z,11.24
2022-12-29T05:19:47.862Z,11.27
2022-12-29T05:20:47.839Z,11.30
2022-12-29T05:21:47.814Z,11.31
2022-12-29T05:22:47.829Z,11.31
2022-12-29T05:23:47.814Z,11.38
2022-12-29T05:24:47.787Z,11.46
2022-12-29T05:25:47.766Z,11.57
2022-12-29T05:26:47.776Z,11.62
2022-12-29T05:27:47.735Z,11.63
2022-12-29T05:28:47.770Z,11.67
2022-12-29T05:29:47.735Z,11.70
2022-12-29T05:30:47.675Z,11.74
2022-12-29T05:31:47.749Z,11.75
2022-12-29T05:32:47.655Z,11.77
2022-12-29T05:33:47.664Z,11.77
2022-12-29T05:34:47.643Z,11.78
2022-12-29T05:35:47.634Z,11.81
2022-12-29T05:36:47.621Z,11.79
2022-12-29T05:37:47.607Z,11.81
2022-12-29T05:38:47.591Z,11.79
2022-12-29T05:39:47.600Z,11.79
2022-12-29T05:40:47.557Z,11.77
2022-12-29T05:41:47.599Z,11.78
2022-12-29T05:42:47.523Z,11.82
2022-12-29T05:43:47.553Z,11.79
2022-12-29T05:44:47.513Z,11.79
2022-12-29T05:45:47.530Z,11.79
2022-12-29T05:46:47.600Z,11.79
2022-12-29T05:47:47.516Z,11.77
2022-12-29T05:48:47.495Z,11.82
2022-12-29T05:49:47.445Z,11.84
2022-12-29T05:50:47.454Z,11.82
2022-12-29T05:52:08.455Z,11.79
2022-12-29T05:52:47.466Z,11.78
2022-12-29T05:53:47.475Z,11.77
2022-12-29T05:54:47.424Z,11.75
2022-12-29T05:55:49.045Z,11.72
2022-12-29T05:56:47.372Z,11.75
2022-12-29T05:57:47.384Z,11.74
2022-12-29T05:58:47.353Z,11.70
2022-12-29T05:59:47.312Z,11.70
2022-12-29T06:00:47.298Z,11.72
2022-12-29T06:01:47.509Z,11.75
2022-12-29T06:02:47.500Z,11.75
2022-12-29T06:03:48.563Z,11.74
2022-12-29T06:04:47.283Z,11.74
2022-12-29T06:05:47.283Z,11.72
2022-12-29T06:06:47.223Z,11.72
2022-12-29T06:07:47.237Z,11.72
2022-12-29T06:08:47.226Z,11.69
2022-12-29T06:09:47.207Z,11.70
2022-12-29T06:10:47.170Z,11.70
2022-12-29T06:11:47.154Z,11.69
2022-12-29T06:12:47.198Z,11.67
2022-12-29T06:13:47.173Z,11.63
2022-12-29T06:14:47.148Z,11.63
2022-12-29T06:15:47.144Z,11.64
2022-12-29T06:16:47.132Z,11.66
2022-12-29T06:17:47.112Z,11.64
2022-12-29T06:18:47.062Z,11.63
2022-12-29T06:19:47.064Z,11.60
2022-12-29T06:20:47.069Z,11.59
2022-12-29T06:21:47.047Z,11.60
2022-12-29T06:22:47.045Z,11.59
2022-12-29T06:23:47.019Z,11.59
2022-12-29T06:24:47.004Z,11.56
2022-12-29T06:25:46.970Z,11.54
2022-12-29T06:26:46.973Z,11.54
2022-12-29T06:27:46.965Z,11.53
2022-12-29T06:28:46.966Z,11.51
2022-12-29T06:29:46.947Z,11.53
2022-12-29T06:30:46.937Z,11.54
2022-12-29T06:31:47.061Z,11.53
2022-12-29T06:32:46.907Z,11.53
2022-12-29T06:33:49.850Z,11.54
2022-12-29T06:34:46.884Z,11.59
2022-12-29T06:35:47.020Z,11.62
2022-12-29T06:36:46.865Z,11.62
2022-12-29T06:37:46.821Z,11.62
2022-12-29T06:38:46.826Z,11.60
2022-12-29T06:39:46.811Z,11.60
2022-12-29T06:40:46.784Z,11.60
2022-12-29T06:41:46.755Z,11.62
2022-12-29T06:42:46.775Z,11.62
2022-12-29T06:43:46.752Z,11.60
2022-12-29T06:44:46.728Z,11.60
2022-12-29T06:45:46.769Z,11.60
2022-12-29T06:46:46.697Z,11.57
2022-12-29T06:47:46.702Z,11.54
2022-12-29T06:48:46.699Z,11.54
2022-12-29T06:49:46.689Z,11.53
2022-12-29T06:50:46.679Z,11.48
2022-12-29T06:51:46.635Z,11.48
2022-12-29T06:52:46.635Z,11.45
2022-12-29T06:53:46.637Z,11.44
2022-12-29T06:54:46.594Z,11.44
2022-12-29T06:55:46.590Z,11.45
2022-12-29T06:56:46.604Z,11.45
2022-12-29T06:57:46.587Z,11.45
2022-12-29T06:58:46.560Z,11.49
2022-12-29T06:59:46.550Z,11.48
2022-12-29T07:00:46.576Z,11.51
2022-12-29T07:01:46.620Z,11.48
2022-12-29T07:02:46.612Z,11.49
2022-12-29T07:03:46.470Z,11.54
2022-12-29T07:04:46.476Z,11.56
2022-12-29T07:05:46.471Z,11.54
2022-12-29T07:06:46.499Z,11.53
2022-12-29T07:07:46.442Z,11.53
2022-12-29T07:08:46.466Z,11.53
2022-12-29T07:09:46.435Z,11.54
2022-12-29T07:10:46.403Z,11.59
2022-12-29T07:11:46.368Z,11.64
2022-12-29T07:12:46.397Z,11.66
2022-12-29T07:13:46.369Z,11.66
2022-12-29T07:14:46.360Z,11.67
2022-12-29T07:15:46.320Z,11.67
2022-12-29T07:16:46.471Z,11.64
2022-12-29T07:17:46.308Z,11.60
2022-12-29T07:18:46.312Z,11.59
2022-12-29T07:19:46.271Z,11.62
2022-12-29T07:20:46.274Z,11.62
2022-12-29T07:21:49.043Z,11.62
2022-12-29T07:22:46.240Z,11.63
2022-12-29T07:23:46.209Z,11.57
2022-12-29T07:24:46.217Z,11.60
2022-12-29T07:25:46.204Z,11.60
2022-12-29T07:26:46.188Z,11.56
2022-12-29T07:27:46.206Z,11.56
2022-12-29T07:28:46.177Z,11.56
2022-12-29T07:29:46.153Z,11.54
2022-12-29T07:30:46.120Z,11.57
2022-12-29T07:31:46.236Z,11.56
2022-12-29T07:32:46.109Z,11.53
2022-12-29T07:33:46.116Z,11.51
2022-12-29T07:34:46.183Z,11.48
2022-12-29T07:35:46.080Z,11.45
2022-12-29T07:36:46.073Z,11.42
2022-12-29T07:37:46.070Z,11.41
2022-12-29T07:38:46.037Z,11.36
2022-12-29T07:39:46.013Z,11.33
2022-12-29T07:40:46.034Z,11.33
2022-12-29T07:41:46.023Z,11.31
2022-12-29T07:42:46.006Z,11.31
2022-12-29T07:43:46.013Z,11.28
2022-12-29T07:44:46.056Z,11.27
2022-12-29T07:45:45.971Z,11.28
2022-12-29T07:46:55.407Z,11.27
2022-12-29T07:47:46.915Z,11.27
2022-12-29T07:48:45.951Z,11.27
2022-12-29T07:49:46.036Z,11.27
2022-12-29T07:50:45.856Z,11.28
2022-12-29T07:51:45.885Z,11.30
2022-12-29T07:52:45.870Z,11.33
2022-12-29T07:53:45.854Z,11.35
2022-12-29T07:54:45.857Z,11.38
2022-12-29T07:55:45.804Z,11.42
2022-12-29T07:56:45.790Z,11.46
2022-12-29T07:57:45.837Z,11.49
2022-12-29T07:58:45.782Z,11.48
2022-12-29T07:59:45.920Z,11.45
2022-12-29T08:00:45.725Z,11.44
2022-12-29T08:01:45.835Z,11.41
2022-12-29T08:02:45.858Z,11.36
2022-12-29T08:03:45.760Z,11.31
2022-12-29T08:04:45.795Z,11.30
2022-12-29T08:05:45.729Z,11.30
2022-12-29T08:06:45.670Z,11.30
2022-12-29T08:07:45.713Z,11.26
2022-12-29T08:08:45.658Z,11.24
2022-12-29T08:09:45.718Z,11.21
2022-12-29T08:10:45.632Z,11.19
2022-12-29T08:11:45.649Z,11.16
2022-12-29T08:12:45.717Z,11.11
2022-12-29T08:13:45.594Z,11.12
2022-12-29T08:14:45.747Z,11.11
2022-12-29T08:15:45.599Z,11.12
2022-12-29T08:16:45.576Z,11.13
2022-12-29T08:17:45.550Z,11.16
2022-12-29T08:18:45.528Z,11.16
2022-12-29T08:19:45.681Z,11.13
2022-12-29T08:20:47.011Z,11.16
2022-12-29T08:21:45.504Z,11.17
2022-12-29T08:22:45.480Z,11.17
2022-12-29T08:23:45.450Z,11.19
2022-12-29T08:24:45.573Z,11.19
2022-12-29T08:25:45.444Z,11.19
2022-12-29T08:26:45.406Z,11.16
2022-12-29T08:27:45.423Z,11.17
2022-12-29T08:28:45.463Z,11.17
2022-12-29T08:29:45.367Z,11.19
2022-12-29T08:30:45.451Z,11.16
2022-12-29T08:31:45.444Z,11.16
2022-12-29T08:32:45.349Z,11.13
2022-12-29T08:33:45.319Z,11.09
2022-12-29T08:34:45.314Z,11.06
2022-12-29T08:35:45.335Z,11.05
2022-12-29T08:36:45.284Z,11.03
2022-12-29T08:37:45.293Z,11.03
2022-12-29T08:38:45.273Z,11.05
2022-12-29T08:39:45.259Z,11.02
2022-12-29T08:40:45.239Z,10.99
2022-12-29T08:41:45.233Z,10.99
2022-12-29T08:42:45.197Z,10.99
2022-12-29T08:43:45.205Z,11.01
2022-12-29T08:44:45.183Z,10.99
2022-12-29T08:45:45.197Z,10.99
2022-12-29T08:46:45.232Z,10.98
2022-12-29T08:47:45.179Z,10.98
2022-12-29T08:48:45.127Z,10.95
2022-12-29T08:49:45.144Z,10.95
2022-12-29T08:50:45.121Z,10.95
2022-12-29T08:51:45.083Z,10.95
2022-12-29T08:52:45.086Z,10.95
2022-12-29T08:53:45.082Z,11.01
2022-12-29T08:54:45.084Z,11.03
2022-12-29T08:55:45.070Z,11.09
2022-12-29T08:56:45.031Z,11.13
2022-12-29T08:57:45.045Z,11.19
2022-12-29T08:58:44.997Z,11.19
2022-12-29T08:59:44.966Z,11.21
2022-12-29T09:00:44.954Z,11.21
2022-12-29T09:01:45.090Z,11.23
2022-12-29T09:02:45.135Z,11.23
2022-12-29T09:04:13.655Z,11.23
2022-12-29T09:04:45.929Z,11.21
2022-12-29T09:05:44.927Z,11.20
2022-12-29T09:06:44.878Z,11.19
2022-12-29T09:07:44.873Z,11.20
2022-12-29T09:08:44.873Z,11.23
2022-12-29T09:09:44.863Z,11.24
2022-12-29T09:10:44.825Z,11.26
2022-12-29T09:11:44.820Z,11.26
2022-12-29T09:12:44.819Z,11.30
2022-12-29T09:13:44.800Z,11.33
2022-12-29T09:14:44.772Z,11.36
2022-12-29T09:15:44.856Z,11.38
2022-12-29T09:16:44.752Z,11.41
2022-12-29T09:17:44.781Z,11.42
2022-12-29T09:18:44.741Z,11.44
2022-12-29T09:19:44.747Z,11.44
2022-12-29T09:20:44.728Z,11.44
2022-12-29T09:21:44.741Z,11.45
2022-12-29T09:22:44.708Z,11.48
2022-12-29T09:23:44.668Z,11.49
2022-12-29T09:24:44.648Z,11.56
2022-12-29T09:25:44.633Z,11.60
2022-12-29T09:26:47.058Z,11.63
2022-12-29T09:27:44.656Z,11.62
2022-12-29T09:28:44.630Z,11.63
2022-12-29T09:29:44.604Z,11.60
2022-12-29T09:30:44.588Z,11.63
2022-12-29T09:31:44.602Z,11.66
2022-12-29T09:32:45.843Z,11.69
2022-12-29T09:33:44.576Z,11.70
2022-12-29T09:34:44.525Z,11.70
2022-12-29T09:35:44.547Z,11.70
2022-12-29T09:36:44.471Z,11.70
2022-12-29T09:37:45.428Z,11.70
2022-12-29T09:38:44.466Z,11.70
2022-12-29T09:39:49.101Z,11.72
2022-12-29T09:40:45.454Z,11.70
2022-12-29T09:41:44.437Z,11.67
2022-12-29T09:42:44.418Z,11.67
2022-12-29T09:43:44.439Z,11.69
2022-12-29T09:44:44.385Z,11.69
2022-12-29T09:45:44.370Z,11.69
2022-12-29T09:46:44.444Z,11.67
2022-12-29T09:47:44.397Z,11.63
2022-12-29T09:48:44.532Z,11.62
2022-12-29T09:49:44.316Z,11.60
2022-12-29T09:50:44.334Z,11.60
2022-12-29T09:51:44.336Z,11.60
2022-12-29T09:52:44.285Z,11.57
2022-12-29T09:53:44.297Z,11.60
2022-12-29T09:54:48.221Z,11.60
2022-12-29T09:55:45.256Z,11.63
2022-12-29T09:56:44.283Z,11.62
2022-12-29T09:57:44.261Z,11.62
2022-12-29T09:58:44.271Z,11.62
2022-12-29T09:59:44.229Z,11.60
2022-12-29T10:00:45.840Z,11.60
2022-12-29T10:01:44.417Z,11.60
2022-12-29T10:02:44.349Z,11.60
2022-12-29T10:03:44.180Z,11.59
2022-12-29T10:04:44.185Z,11.59
2022-12-29T10:05:44.109Z,11.60
2022-12-29T10:07:19.387Z,11.63
2022-12-29T10:07:45.116Z,11.60
2022-12-29T10:08:44.074Z,11.60
2022-12-29T10:09:44.092Z,11.60
2022-12-29T10:10:44.075Z,11.60
2022-12-29T10:11:44.052Z,11.57
2022-12-29T10:12:44.087Z,11.57
2022-12-29T10:13:44.014Z,11.56
2022-12-29T10:14:44.000Z,11.56
2022-12-29T10:15:44.030Z,11.54
2022-12-29T10:16:44.079Z,11.51
2022-12-29T10:17:43.980Z,11.53
2022-12-29T10:18:43.981Z,11.54
2022-12-29T10:19:43.954Z,11.56
2022-12-29T10:20:44.008Z,11.54
2022-12-29T10:21:43.932Z,11.54
2022-12-29T10:22:43.873Z,11.54
2022-12-29T10:23:43.941Z,11.54
2022-12-29T10:24:43.842Z,11.53
2022-12-29T10:25:43.867Z,11.54
2022-12-29T10:26:43.827Z,11.54
2022-12-29T10:27:43.852Z,11.54
2022-12-29T10:28:43.839Z,11.54
2022-12-29T10:29:43.827Z,11.56
2022-12-29T10:30:43.773Z,11.56
2022-12-29T10:31:43.892Z,11.56
2022-12-29T10:32:43.775Z,11.57
2022-12-29T10:33:43.809Z,11.60
2022-12-29T10:34:43.757Z,11.62
2022-12-29T10:35:43.782Z,11.64
2022-12-29T10:36:43.721Z,11.64
2022-12-29T10:37:43.717Z,11.66
2022-12-29T10:38:43.703Z,11.69
2022-12-29T10:39:43.699Z,11.69
2022-12-29T10:40:43.683Z,11.70
2022-12-29T10:41:43.666Z,11.74
2022-12-29T10:42:43.624Z,11.77
2022-12-29T10:43:43.670Z,11.77
2022-12-29T10:44:43.590Z,11.78
2022-12-29T10:45:43.629Z,11.77
2022-12-29T10:46:43.595Z,11.78
2022-12-29T10:47:43.601Z,11.79
2022-12-29T10:48:43.578Z,11.77
2022-12-29T10:49:43.609Z,11.79
2022-12-29T10:50:43.544Z,11.78
2022-12-29T10:51:43.513Z,11.81
2022-12-29T10:52:43.508Z,11.82
2022-12-29T10:53:43.575Z,11.85
2022-12-29T10:54:43.493Z,11.88
2022-12-29T10:55:43.494Z,11.88
2022-12-29T10:56:43.431Z,11.93
2022-12-29T10:57:43.439Z,11.94
2022-12-29T10:58:48.077Z,11.93
2022-12-29T10:59:44.454Z,11.93
2022-12-29T11:00:43.402Z,11.88
2022-12-29T11:01:43.668Z,11.90
2022-12-29T11:02:43.610Z,11.93
2022-12-29T11:03:43.371Z,11.93
2022-12-29T11:04:43.327Z,11.96
2022-12-29T11:05:43.351Z,11.97
2022-12-29T11:06:43.328Z,12.03
2022-12-29T11:07:43.337Z,12.04
2022-12-29T11:08:43.309Z,12.07
2022-12-29T11:09:43.694Z,12.11
2022-12-29T11:10:43.291Z,12.15
2022-12-29T11:11:43.282Z,12.13
2022-12-29T11:12:43.237Z,12.15
2022-12-29T11:13:43.262Z,12.15
2022-12-29T11:14:43.219Z,12.15
2022-12-29T11:15:43.194Z,12.13
2022-12-29T11:16:43.272Z,12.11
2022-12-29T11:17:43.215Z,12.08
2022-12-29T11:18:43.201Z,12.07
2022-12-29T11:19:43.237Z,12.05
2022-12-29T11:20:43.159Z,12.05
2022-12-29T11:21:43.547Z,12.05
2022-12-29T11:22:43.105Z,12.07
2022-12-29T11:23:43.135Z,12.05
2022-12-29T11:24:43.095Z,12.05
2022-12-29T11:25:43.083Z,12.08
2022-12-29T11:26:43.045Z,12.08
2022-12-29T11:27:43.072Z,12.08
2022-12-29T11:28:43.063Z,12.11
2022-12-29T11:29:43.051Z,12.11
2022-12-29T11:30:43.088Z,12.13
2022-12-29T11:31:43.153Z,12.11
2022-12-29T11:32:42.990Z,12.08
2022-12-29T11:33:43.010Z,12.08
2022-12-29T11:34:42.978Z,12.11
2022-12-29T11:35:42.952Z,12.12
2022-12-29T11:36:42.939Z,12.12
2022-12-29T11:37:43.019Z,12.15
2022-12-29T11:38:42.904Z,12.15
2022-12-29T11:39:43.034Z,12.15
2022-12-29T11:40:42.854Z,12.13
2022-12-29T11:41:42.882Z,12.12
2022-12-29T11:42:42.868Z,12.12
2022-12-29T11:43:42.858Z,12.05
2022-12-29T11:44:42.809Z,12.05
2022-12-29T11:45:42.927Z,12.04
2022-12-29T11:46:42.819Z,12.01
2022-12-29T11:47:42.792Z,11.98
2022-12-29T11:48:42.895Z,11.97
2022-12-29T11:49:42.804Z,11.97
2022-12-29T11:50:42.815Z,11.97
2022-12-29T11:51:42.739Z,11.97
2022-12-29T11:52:42.702Z,11.94
2022-12-29T11:53:42.750Z,11.96
2022-12-29T11:54:42.815Z,11.94
2022-12-29T11:55:42.713Z,11.93
2022-12-29T11:56:42.689Z,11.90
2022-12-29T11:57:42.649Z,11.87
2022-12-29T11:58:42.709Z,11.84
2022-12-29T11:59:42.612Z,11.84
2022-12-29T12:00:42.634Z,11.82
2022-12-29T12:01:42.621Z,11.82
2022-12-29T12:02:43.713Z,11.85
2022-12-29T12:03:42.817Z,11.84
2022-12-29T12:04:42.558Z,11.84
2022-12-29T12:05:42.537Z,11.87
2022-12-29T12:06:42.539Z,11.84
2022-12-29T12:07:42.532Z,11.84
2022-12-29T12:08:42.543Z,11.82
2022-12-29T12:09:42.506Z,11.81
2022-12-29T12:10:42.529Z,11.81
2022-12-29T12:11:42.458Z,11.81
2022-12-29T12:12:42.471Z,11.79
2022-12-29T12:13:42.472Z,11.82
2022-12-29T12:14:42.439Z,11.82
2022-12-29T12:15:46.748Z,11.82
2022-12-29T12:16:43.586Z,11.82
2022-12-29T12:17:42.446Z,11.81
2022-12-29T12:18:42.538Z,11.81
2022-12-29T12:19:42.383Z,11.78
2022-12-29T12:20:42.464Z,11.81
2022-12-29T12:21:45.740Z,11.81
2022-12-29T12:22:42.389Z,11.79
2022-12-29T12:23:42.343Z,11.82
2022-12-29T12:24:42.311Z,11.82
2022-12-29T12:25:42.310Z,11.81
2022-12-29T12:26:42.330Z,11.81
2022-12-29T12:27:42.280Z,11.81
2022-12-29T12:28:42.266Z,11.82
2022-12-29T12:29:42.252Z,11.81
2022-12-29T12:30:42.414Z,11.82
2022-12-29T12:31:42.266Z,11.84
2022-12-29T12:32:42.231Z,11.82
2022-12-29T12:33:42.223Z,11.84
2022-12-29T12:34:42.193Z,11.85
2022-12-29T12:35:42.179Z,11.82
2022-12-29T12:36:42.173Z,11.82
2022-12-29T12:37:42.140Z,11.82
2022-12-29T12:38:42.139Z,11.84
2022-12-29T12:39:42.106Z,11.85
2022-12-29T12:40:42.143Z,11.87
2022-12-29T12:41:42.092Z,11.87
2022-12-29T12:42:42.109Z,11.90
2022-12-29T12:43:42.043Z,11.90
2022-12-29T12:44:42.054Z,11.87
2022-12-29T12:45:42.039Z,11.87
2022-12-29T12:46:42.108Z,11.87
2022-12-29T12:47:42.024Z,11.85
2022-12-29T12:48:42.090Z,11.84
2022-12-29T12:49:41.981Z,11.82
2022-12-29T12:50:42.062Z,11.82
2022-12-29T12:51:42.009Z,11.82
2022-12-29T12:52:41.963Z,11.81
2022-12-29T12:53:41.972Z,11.81
2022-12-29T12:54:41.937Z,11.81
2022-12-29T12:55:41.919Z,11.81